createdAt,value
2018-08-13T00:00:11.321Z,17.58
2018-08-13T00:01:11.307Z,17.75
2018-08-13T00:02:11.286Z,17.68
2018-08-13T00:03:11.269Z,17.52
2018-08-13T00:04:11.254Z,17.43
2018-08-13T00:05:11.234Z,17.54
2018-08-13T00:06:11.218Z,17.41
2018-08-13T00:07:11.202Z,17.43
2018-08-13T00:08:11.184Z,17.48
2018-08-13T00:09:11.169Z,17.38
2018-08-13T00:10:11.154Z,17.36
2018-08-13T00:11:11.137Z,17.36
2018-08-13T00:12:11.119Z,17.30
2018-08-13T00:13:11.099Z,17.26
2018-08-13T00:14:11.079Z,17.31
2018-08-13T00:15:11.071Z,17.23
2018-08-13T00:16:11.048Z,17.21
2018-08-13T00:17:11.031Z,17.26
2018-08-13T00:18:11.018Z,17.23
2018-08-13T00:19:11.002Z,17.23
2018-08-13T00:20:10.981Z,17.28
2018-08-13T00:21:10.961Z,17.25
2018-08-13T00:22:10.948Z,17.28
2018-08-13T00:23:10.929Z,17.23
2018-08-13T00:24:10.913Z,17.15
2018-08-13T00:25:10.895Z,17.18
2018-08-13T00:26:10.878Z,17.15
2018-08-13T00:27:10.864Z,17.22
2018-08-13T00:28:10.855Z,17.18
2018-08-13T00:29:10.830Z,17.12
2018-08-13T00:30:10.810Z,17.16
2018-08-13T00:31:10.794Z,17.12
2018-08-13T00:32:10.776Z,17.07
2018-08-13T00:33:10.758Z,17.06
2018-08-13T00:34:10.741Z,17.00
2018-08-13T00:35:10.728Z,16.98
2018-08-13T00:36:10.707Z,16.85
2018-08-13T00:37:10.688Z,16.91
2018-08-13T00:38:10.670Z,16.85
2018-08-13T00:39:10.661Z,16.94
2018-08-13T00:40:10.650Z,16.91
2018-08-13T00:41:10.624Z,16.91
2018-08-13T00:42:10.609Z,17.00
2018-08-13T00:43:10.587Z,16.93
2018-08-13T00:44:10.568Z,16.98
2018-08-13T00:45:10.555Z,16.93
2018-08-13T00:46:10.539Z,16.82
2018-08-13T00:47:10.521Z,16.88
2018-08-13T00:48:10.505Z,16.82
2018-08-13T00:49:10.486Z,16.68
2018-08-13T00:50:10.462Z,16.75
2018-08-13T00:51:10.447Z,16.81
2018-08-13T00:52:10.441Z,16.78
2018-08-13T00:53:10.410Z,16.83
2018-08-13T00:54:10.396Z,16.68
2018-08-13T00:55:10.379Z,16.76
2018-08-13T00:56:10.361Z,16.70
2018-08-13T00:57:10.341Z,16.70
2018-08-13T00:58:10.328Z,16.75
2018-08-13T00:59:10.310Z,16.78
2018-08-13T01:00:10.295Z,16.73
2018-08-13T01:01:10.277Z,16.64
2018-08-13T01:02:10.263Z,16.63
2018-08-13T01:03:10.237Z,16.61
2018-08-13T01:04:10.220Z,16.61
2018-08-13T01:05:10.201Z,16.57
2018-08-13T01:06:10.204Z,16.53
2018-08-13T01:07:10.173Z,16.57
2018-08-13T01:08:10.154Z,16.53
2018-08-13T01:09:10.136Z,16.56
2018-08-13T01:10:10.114Z,16.48
2018-08-13T01:11:10.103Z,16.50
2018-08-13T01:12:10.084Z,16.52
2018-08-13T01:13:10.066Z,16.50
2018-08-13T01:14:10.048Z,16.56
2018-08-13T01:15:10.031Z,16.46
2018-08-13T01:16:10.013Z,16.58
2018-08-13T01:17:09.995Z,16.63
2018-08-13T01:18:09.974Z,16.67
2018-08-13T01:19:09.963Z,16.64
2018-08-13T01:20:09.949Z,16.66
2018-08-13T01:21:09.926Z,16.58
2018-08-13T01:22:09.904Z,16.64
2018-08-13T01:23:09.887Z,16.56
2018-08-13T01:24:09.871Z,16.58
2018-08-13T01:25:09.851Z,16.63
2018-08-13T01:26:09.837Z,16.56
2018-08-13T01:27:09.817Z,16.63
2018-08-13T01:28:09.799Z,16.60
2018-08-13T01:29:09.785Z,16.61
2018-08-13T01:30:09.763Z,16.58
2018-08-13T01:31:09.751Z,16.61
2018-08-13T01:32:09.733Z,16.64
2018-08-13T01:33:09.716Z,16.64
2018-08-13T01:34:09.697Z,16.60
2018-08-13T01:35:09.674Z,16.57
2018-08-13T01:36:09.662Z,16.66
2018-08-13T01:37:09.650Z,16.66
2018-08-13T01:38:09.635Z,16.50
2018-08-13T01:39:09.610Z,16.56
2018-08-13T01:40:09.589Z,16.48
2018-08-13T01:41:09.570Z,16.56
2018-08-13T01:42:09.551Z,16.53
2018-08-13T01:43:09.538Z,16.53
2018-08-13T01:44:09.521Z,16.58
2018-08-13T01:45:09.499Z,16.52
2018-08-13T01:46:09.481Z,16.46
2018-08-13T01:47:09.466Z,16.50
2018-08-13T01:48:09.446Z,16.50
2018-08-13T01:49:09.433Z,16.48
2018-08-13T01:50:09.412Z,16.42
2018-08-13T01:51:09.397Z,16.46
2018-08-13T01:52:09.377Z,16.31
2018-08-13T01:53:09.357Z,16.25
2018-08-13T01:54:09.340Z,16.27
2018-08-13T01:55:09.323Z,16.30
2018-08-13T01:56:09.306Z,16.30
2018-08-13T01:57:09.284Z,16.27
2018-08-13T01:58:09.269Z,16.25
2018-08-13T01:59:09.254Z,16.21
2018-08-13T02:00:09.232Z,16.23
2018-08-13T02:01:09.217Z,16.23
2018-08-13T02:02:09.198Z,16.12
2018-08-13T02:03:09.184Z,16.20
2018-08-13T02:04:09.162Z,16.11
2018-08-13T02:05:09.146Z,16.08
2018-08-13T02:06:09.126Z,16.14
2018-08-13T02:07:09.108Z,16.11
2018-08-13T02:08:09.088Z,16.11
2018-08-13T02:09:09.072Z,16.07
2018-08-13T02:10:09.053Z,16.11
2018-08-13T02:11:09.035Z,16.11
2018-08-13T02:12:09.022Z,16.15
2018-08-13T02:13:08.998Z,16.02
2018-08-13T02:14:08.982Z,15.94
2018-08-13T02:15:08.967Z,16.01
2018-08-13T02:16:08.946Z,16.09
2018-08-13T02:17:08.926Z,15.93
2018-08-13T02:18:08.913Z,15.93
2018-08-13T02:19:08.896Z,15.90
2018-08-13T02:20:08.877Z,15.97
2018-08-13T02:21:08.854Z,15.89
2018-08-13T02:22:08.840Z,15.97
2018-08-13T02:23:08.824Z,15.90
2018-08-13T02:24:08.806Z,15.82
2018-08-13T02:25:08.783Z,15.74
2018-08-13T02:26:08.776Z,15.83
2018-08-13T02:27:08.750Z,15.89
2018-08-13T02:28:08.732Z,15.80
2018-08-13T02:29:08.714Z,15.72
2018-08-13T02:30:08.693Z,15.78
2018-08-13T02:31:08.681Z,15.71
2018-08-13T02:32:08.661Z,15.65
2018-08-13T02:33:08.642Z,15.60
2018-08-13T02:34:08.633Z,15.67
2018-08-13T02:35:08.603Z,15.57
2018-08-13T02:36:08.585Z,15.51
2018-08-13T02:37:08.571Z,15.56
2018-08-13T02:38:08.551Z,15.53
2018-08-13T02:39:08.564Z,15.49
2018-08-13T02:40:08.513Z,15.57
2018-08-13T02:41:08.492Z,15.46
2018-08-13T02:42:08.475Z,15.43
2018-08-13T02:43:08.460Z,15.35
2018-08-13T02:44:08.439Z,15.46
2018-08-13T02:45:08.424Z,15.32
2018-08-13T02:46:08.402Z,15.38
2018-08-13T02:47:08.382Z,15.39
2018-08-13T02:48:08.365Z,15.36
2018-08-13T02:49:08.351Z,15.38
2018-08-13T02:50:08.332Z,15.38
2018-08-13T02:51:08.309Z,15.39
2018-08-13T02:52:08.296Z,15.35
2018-08-13T02:53:08.272Z,15.34
2018-08-13T02:54:08.258Z,15.34
2018-08-13T02:55:08.244Z,15.47
2018-08-13T02:56:08.224Z,15.53
2018-08-13T02:57:08.204Z,15.54
2018-08-13T02:58:08.256Z,15.62
2018-08-13T02:59:08.168Z,15.53
2018-08-13T03:00:08.152Z,15.49
2018-08-13T03:01:08.133Z,15.51
2018-08-13T03:02:08.118Z,15.46
2018-08-13T03:03:08.095Z,15.51
2018-08-13T03:04:08.080Z,15.54
2018-08-13T03:05:08.064Z,15.44
2018-08-13T03:06:08.038Z,15.47
2018-08-13T03:07:08.017Z,15.43
2018-08-13T03:08:07.999Z,15.34
2018-08-13T03:09:07.981Z,15.31
2018-08-13T03:10:07.959Z,15.34
2018-08-13T03:11:07.945Z,15.25
2018-08-13T03:12:07.924Z,15.13
2018-08-13T03:13:07.907Z,15.16
2018-08-13T03:14:07.891Z,15.09
2018-08-13T03:15:07.871Z,15.02
2018-08-13T03:16:07.851Z,14.99
2018-08-13T03:17:07.831Z,14.98
2018-08-13T03:18:07.817Z,14.95
2018-08-13T03:19:07.800Z,14.80
2018-08-13T03:20:07.779Z,14.80
2018-08-13T03:21:07.769Z,14.86
2018-08-13T03:22:07.743Z,14.91
2018-08-13T03:23:07.727Z,14.89
2018-08-13T03:24:07.701Z,14.84
2018-08-13T03:25:07.686Z,14.91
2018-08-13T03:26:07.669Z,14.91
2018-08-13T03:27:07.649Z,14.94
2018-08-13T03:28:07.627Z,14.88
2018-08-13T03:29:07.608Z,14.83
2018-08-13T03:30:07.592Z,14.78
2018-08-13T03:31:07.573Z,14.81
2018-08-13T03:32:07.559Z,14.78
2018-08-13T03:33:07.534Z,14.72
2018-08-13T03:34:07.515Z,14.73
2018-08-13T03:35:07.500Z,14.80
2018-08-13T03:36:07.478Z,14.80
2018-08-13T03:37:07.463Z,14.80
2018-08-13T03:38:07.441Z,14.72
2018-08-13T03:39:07.422Z,14.72
2018-08-13T03:40:07.406Z,14.72
2018-08-13T03:41:07.384Z,14.80
2018-08-13T03:42:07.366Z,14.73
2018-08-13T03:43:07.351Z,14.77
2018-08-13T03:44:07.332Z,14.70
2018-08-13T03:45:07.313Z,14.70
2018-08-13T03:46:07.295Z,14.72
2018-08-13T03:47:07.274Z,14.73
2018-08-13T03:48:07.253Z,14.62
2018-08-13T03:49:07.236Z,14.75
2018-08-13T03:50:07.214Z,14.88
2018-08-13T03:51:07.200Z,14.91
2018-08-13T03:52:07.183Z,14.89
2018-08-13T03:53:07.162Z,14.83
2018-08-13T03:54:07.143Z,14.83
2018-08-13T03:55:07.122Z,14.89
2018-08-13T03:56:07.103Z,14.89
2018-08-13T03:57:07.086Z,14.88
2018-08-13T03:58:07.065Z,14.81
2018-08-13T03:59:07.051Z,14.84
2018-08-13T04:00:37.446Z,14.81
2018-08-13T04:01:37.413Z,14.84
2018-08-13T04:02:37.388Z,14.77
2018-08-13T04:03:37.376Z,14.80
2018-08-13T04:04:37.352Z,14.80
2018-08-13T04:05:37.335Z,14.72
2018-08-13T04:06:37.316Z,14.75
2018-08-13T04:07:37.298Z,14.61
2018-08-13T04:08:37.279Z,14.72
2018-08-13T04:09:37.261Z,14.75
2018-08-13T04:10:37.243Z,14.75
2018-08-13T04:11:37.229Z,14.78
2018-08-13T04:12:37.205Z,14.72
2018-08-13T04:13:37.194Z,14.72
2018-08-13T04:14:37.173Z,14.75
2018-08-13T04:15:37.156Z,14.69
2018-08-13T04:16:37.134Z,14.73
2018-08-13T04:17:37.126Z,14.73
2018-08-13T04:18:37.104Z,14.80
2018-08-13T04:19:37.085Z,14.78
2018-08-13T04:20:37.064Z,14.77
2018-08-13T04:21:37.052Z,14.81
2018-08-13T04:22:37.033Z,14.78
2018-08-13T04:23:37.013Z,14.84
2018-08-13T04:24:36.995Z,14.77
2018-08-13T04:25:36.980Z,14.80
2018-08-13T04:26:36.966Z,14.78
2018-08-13T04:27:36.952Z,14.80
2018-08-13T04:28:36.927Z,14.83
2018-08-13T04:29:36.909Z,14.92
2018-08-13T04:30:36.894Z,14.89
2018-08-13T04:31:36.875Z,14.94
2018-08-13T04:32:36.898Z,14.88
2018-08-13T04:33:36.840Z,14.92
2018-08-13T04:34:36.824Z,14.94
2018-08-13T04:35:36.805Z,14.96
2018-08-13T04:36:36.789Z,14.96
2018-08-13T04:37:36.772Z,14.99
2018-08-13T04:38:36.776Z,14.94
2018-08-13T04:39:36.738Z,14.91
2018-08-13T04:40:36.746Z,14.94
2018-08-13T04:41:36.702Z,15.01
2018-08-13T04:42:36.687Z,14.99
2018-08-13T04:43:36.669Z,14.99
2018-08-13T04:44:36.655Z,14.94
2018-08-13T04:45:36.636Z,15.03
2018-08-13T04:46:36.618Z,15.01
2018-08-13T04:47:36.599Z,15.06
2018-08-13T04:48:36.581Z,15.02
2018-08-13T04:49:36.568Z,15.21
2018-08-13T04:50:36.547Z,15.27
2018-08-13T04:51:36.535Z,15.23
2018-08-13T04:52:36.513Z,15.28
2018-08-13T04:53:36.497Z,15.32
2018-08-13T04:54:36.481Z,15.35
2018-08-13T04:55:36.468Z,15.34
2018-08-13T04:56:36.445Z,15.39
2018-08-13T04:57:36.433Z,15.50
2018-08-13T04:58:36.413Z,15.35
2018-08-13T04:59:36.394Z,15.46
2018-08-13T05:00:36.382Z,15.44
2018-08-13T05:01:36.362Z,15.38
2018-08-13T05:02:36.347Z,15.49
2018-08-13T05:03:36.329Z,15.38
2018-08-13T05:04:36.312Z,15.38
2018-08-13T05:05:36.295Z,15.44
2018-08-13T05:06:36.279Z,15.49
2018-08-13T05:07:36.262Z,15.49
2018-08-13T05:08:36.244Z,15.53
2018-08-13T05:09:36.228Z,15.54
2018-08-13T05:10:36.214Z,15.56
2018-08-13T05:11:36.195Z,15.65
2018-08-13T05:12:36.177Z,15.50
2018-08-13T05:13:36.159Z,15.51
2018-08-13T05:14:36.157Z,15.57
2018-08-13T05:15:36.128Z,15.53
2018-08-13T05:16:36.109Z,15.64
2018-08-13T05:17:36.092Z,15.57
2018-08-13T05:18:36.079Z,15.71
2018-08-13T05:19:36.064Z,15.74
2018-08-13T05:20:36.043Z,15.71
2018-08-13T05:21:36.026Z,15.90
2018-08-13T05:22:36.017Z,15.93
2018-08-13T05:23:35.994Z,15.97
2018-08-13T05:24:35.980Z,15.94
2018-08-13T05:25:35.961Z,15.92
2018-08-13T05:26:35.944Z,16.02
2018-08-13T05:27:35.976Z,15.94
2018-08-13T05:28:35.913Z,15.97
2018-08-13T05:29:35.893Z,16.07
2018-08-13T05:30:35.881Z,16.08
2018-08-13T05:31:35.862Z,16.23
2018-08-13T05:32:35.847Z,16.21
2018-08-13T05:33:35.829Z,16.23
2018-08-13T05:34:35.815Z,16.28
2018-08-13T05:35:35.800Z,16.35
2018-08-13T05:36:35.782Z,16.34
2018-08-13T05:37:35.763Z,16.43
2018-08-13T05:38:35.769Z,16.43
2018-08-13T05:39:35.731Z,16.52
2018-08-13T05:40:35.713Z,16.53
2018-08-13T05:41:35.696Z,16.60
2018-08-13T05:42:35.682Z,16.61
2018-08-13T05:43:35.666Z,16.76
2018-08-13T05:44:35.647Z,16.71
2018-08-13T05:45:35.641Z,16.78
2018-08-13T05:46:35.616Z,16.83
2018-08-13T05:47:35.600Z,16.96
2018-08-13T05:48:35.583Z,17.00
2018-08-13T05:49:35.569Z,16.98
2018-08-13T05:50:35.551Z,17.14
2018-08-13T05:51:35.543Z,17.11
2018-08-13T05:52:35.518Z,17.19
2018-08-13T05:53:35.504Z,17.14
2018-08-13T05:54:35.487Z,17.26
2018-08-13T05:55:35.469Z,17.34
2018-08-13T05:56:35.453Z,17.33
2018-08-13T05:57:35.440Z,17.36
2018-08-13T05:58:35.424Z,17.40
2018-08-13T05:59:35.407Z,17.41
2018-08-13T06:00:35.392Z,17.54
2018-08-13T06:01:35.375Z,17.55
2018-08-13T06:02:35.359Z,17.68
2018-08-13T06:03:35.343Z,17.59
2018-08-13T06:04:35.353Z,17.70
2018-08-13T06:05:35.311Z,17.70
2018-08-13T06:06:35.295Z,17.81
2018-08-13T06:07:35.283Z,17.82
2018-08-13T06:08:35.270Z,17.86
2018-08-13T06:09:35.259Z,18.03
2018-08-13T06:10:35.232Z,18.08
2018-08-13T06:11:35.311Z,18.10
2018-08-13T06:12:35.199Z,18.20
2018-08-13T06:13:35.183Z,18.26
2018-08-13T06:14:35.170Z,18.41
2018-08-13T06:15:35.152Z,18.32
2018-08-13T06:16:35.140Z,18.45
2018-08-13T06:17:35.120Z,18.47
2018-08-13T06:18:35.121Z,18.62
2018-08-13T06:19:35.100Z,18.73
2018-08-13T06:20:35.077Z,18.76
2018-08-13T06:21:35.059Z,18.80
2018-08-13T06:22:35.044Z,18.82
2018-08-13T06:23:35.031Z,18.94
2018-08-13T06:24:35.012Z,18.84
2018-08-13T06:25:34.997Z,18.92
2018-08-13T06:26:34.983Z,18.98
2018-08-13T06:27:34.968Z,19.00
2018-08-13T06:28:34.953Z,19.13
2018-08-13T06:29:34.937Z,19.16
2018-08-13T06:30:34.923Z,19.25
2018-08-13T06:31:34.911Z,19.33
2018-08-13T06:32:34.896Z,19.36
2018-08-13T06:33:34.878Z,19.32
2018-08-13T06:34:34.861Z,19.58
2018-08-13T06:35:34.846Z,19.55
2018-08-13T06:36:34.831Z,19.58
2018-08-13T06:37:34.830Z,19.69
2018-08-13T06:38:34.801Z,19.76
2018-08-13T06:39:34.784Z,19.84
2018-08-13T06:40:34.770Z,19.92
2018-08-13T06:41:34.758Z,19.98
2018-08-13T06:42:34.746Z,20.06
2018-08-13T06:43:34.729Z,20.20
2018-08-13T06:44:34.713Z,20.23
2018-08-13T06:45:34.697Z,20.35
2018-08-13T06:46:34.691Z,20.42
2018-08-13T06:47:34.671Z,20.35
2018-08-13T06:48:34.654Z,20.48
2018-08-13T06:49:34.967Z,20.59
2018-08-13T06:50:34.629Z,20.67
2018-08-13T06:51:34.611Z,20.80
2018-08-13T06:52:34.598Z,20.91
2018-08-13T06:53:34.584Z,20.99
2018-08-13T06:54:34.569Z,21.16
2018-08-13T06:55:34.556Z,21.12
2018-08-13T06:56:34.541Z,21.21
2018-08-13T06:57:34.530Z,21.27
2018-08-13T06:58:34.513Z,21.47
2018-08-13T06:59:34.502Z,21.44
2018-08-13T07:00:34.488Z,21.53
2018-08-13T07:01:34.475Z,21.65
2018-08-13T07:02:34.457Z,21.67
2018-08-13T07:03:34.445Z,21.90
2018-08-13T07:04:34.433Z,21.96
2018-08-13T07:05:34.416Z,22.09
2018-08-13T07:06:34.407Z,22.20
2018-08-13T07:07:34.390Z,22.31
2018-08-13T07:08:34.377Z,22.28
2018-08-13T07:09:34.363Z,22.43
2018-08-13T07:10:34.353Z,22.58
2018-08-13T07:11:34.340Z,22.67
2018-08-13T07:12:34.323Z,22.77
2018-08-13T07:13:34.311Z,22.79
2018-08-13T07:14:34.300Z,22.94
2018-08-13T07:15:34.307Z,23.02
2018-08-13T07:16:34.272Z,23.17
2018-08-13T07:17:34.275Z,23.42
2018-08-13T07:18:34.247Z,23.61
2018-08-13T07:19:34.233Z,24.06
2018-08-13T07:20:34.223Z,24.45
2018-08-13T07:21:34.207Z,24.99
2018-08-13T07:22:34.196Z,25.61
2018-08-13T07:23:34.184Z,26.10
2018-08-13T07:24:34.172Z,26.60
2018-08-13T07:25:34.161Z,27.00
2018-08-13T07:26:34.149Z,27.49
2018-08-13T07:27:34.133Z,27.90
2018-08-13T07:28:34.121Z,28.31
2018-08-13T07:29:34.109Z,28.78
2018-08-13T07:30:34.097Z,29.05
2018-08-13T07:31:34.086Z,29.12
2018-08-13T07:32:34.079Z,29.24
2018-08-13T07:33:34.097Z,29.57
2018-08-13T07:34:34.057Z,29.51
2018-08-13T07:35:34.043Z,29.58
2018-08-13T07:36:34.036Z,30.00
2018-08-13T07:37:34.022Z,30.07
2018-08-13T07:38:34.014Z,30.32
2018-08-13T07:39:34.052Z,30.61
2018-08-13T07:40:33.995Z,31.23
2018-08-13T07:41:33.985Z,31.61
2018-08-13T07:42:33.977Z,31.99
2018-08-13T07:43:33.970Z,32.03
2018-08-13T07:44:33.959Z,32.22
2018-08-13T07:45:33.956Z,32.35
2018-08-13T07:46:33.974Z,32.40
2018-08-13T07:47:33.940Z,32.72
2018-08-13T07:48:33.929Z,33.23
2018-08-13T07:49:33.920Z,33.60
2018-08-13T07:50:33.917Z,33.81
2018-08-13T07:51:33.956Z,34.21
2018-08-13T07:52:34.715Z,34.34
2018-08-13T07:53:33.893Z,34.53
2018-08-13T07:54:33.887Z,34.69
2018-08-13T07:55:33.881Z,34.70
2018-08-13T07:56:33.875Z,34.65
2018-08-13T07:57:33.868Z,35.02
2018-08-13T07:58:33.887Z,35.26
2018-08-13T07:59:33.858Z,35.19
2018-08-13T08:00:33.850Z,35.10
2018-08-13T08:01:33.848Z,34.94
2018-08-13T08:02:33.844Z,34.94
2018-08-13T08:03:33.846Z,34.97
2018-08-13T08:04:33.833Z,34.97
2018-08-13T08:05:33.828Z,34.82
2018-08-13T08:06:33.824Z,34.52
2018-08-13T08:07:33.827Z,33.82
2018-08-13T08:08:33.815Z,33.42
2018-08-13T08:09:33.809Z,33.47
2018-08-13T08:10:33.809Z,33.37
2018-08-13T08:11:33.805Z,33.84
2018-08-13T08:12:33.796Z,34.49
2018-08-13T08:13:33.793Z,34.99
2018-08-13T08:14:33.810Z,35.45
2018-08-13T08:15:33.785Z,36.05
2018-08-13T08:16:33.786Z,36.68
2018-08-13T08:17:33.783Z,37.10
2018-08-13T08:18:33.777Z,37.64
2018-08-13T08:19:33.774Z,38.28
2018-08-13T08:20:33.770Z,38.61
2018-08-13T08:21:33.767Z,39.25
2018-08-13T08:22:33.762Z,39.84
2018-08-13T08:23:33.758Z,40.04
2018-08-13T08:24:33.756Z,40.46
2018-08-13T08:25:33.753Z,40.74
2018-08-13T08:26:33.751Z,41.13
2018-08-13T08:27:33.746Z,40.84
2018-08-13T08:28:33.744Z,40.67
2018-08-13T08:29:33.741Z,40.34
2018-08-13T08:30:33.738Z,40.23
2018-08-13T08:31:33.737Z,40.53
2018-08-13T08:32:33.731Z,40.62
2018-08-13T08:33:33.735Z,40.12
2018-08-13T08:34:33.726Z,40.34
2018-08-13T08:35:33.726Z,40.84
2018-08-13T08:36:33.723Z,40.98
2018-08-13T08:37:33.720Z,40.99
2018-08-13T08:38:33.719Z,41.17
2018-08-13T08:39:33.723Z,41.28
2018-08-13T08:40:33.826Z,41.25
2018-08-13T08:41:33.710Z,41.01
2018-08-13T08:42:33.709Z,40.29
2018-08-13T08:43:33.711Z,39.22
2018-08-13T08:44:33.704Z,39.23
2018-08-13T08:45:33.703Z,39.43
2018-08-13T08:46:33.701Z,39.43
2018-08-13T08:47:33.702Z,39.43
2018-08-13T08:48:33.700Z,39.21
2018-08-13T08:49:33.694Z,39.36
2018-08-13T08:50:33.693Z,39.33
2018-08-13T08:51:33.694Z,39.41
2018-08-13T08:52:33.693Z,38.75
2018-08-13T08:53:33.694Z,38.34
2018-08-13T08:54:33.685Z,37.93
2018-08-13T08:55:33.683Z,37.06
2018-08-13T08:56:33.683Z,36.53
2018-08-13T08:57:33.678Z,36.31
2018-08-13T08:58:33.682Z,36.13
2018-08-13T08:59:33.674Z,35.85
2018-08-13T09:00:33.675Z,35.37
2018-08-13T09:01:33.672Z,35.07
2018-08-13T09:02:33.667Z,34.88
2018-08-13T09:03:33.663Z,34.80
2018-08-13T09:04:33.663Z,34.77
2018-08-13T09:05:33.663Z,34.72
2018-08-13T09:06:33.655Z,34.62
2018-08-13T09:07:33.653Z,34.50
2018-08-13T09:08:33.650Z,34.39
2018-08-13T09:09:33.647Z,34.19
2018-08-13T09:10:33.644Z,34.13
2018-08-13T09:12:16.849Z,34.10
2018-08-13T09:13:16.845Z,34.08
2018-08-13T09:14:17.042Z,33.93
2018-08-13T09:15:16.838Z,33.81
2018-08-13T09:16:16.837Z,33.79
2018-08-13T09:17:16.828Z,33.56
2018-08-13T09:18:16.827Z,33.38
2018-08-13T09:19:16.827Z,33.32
2018-08-13T09:20:16.822Z,33.29
2018-08-13T09:21:16.815Z,33.31
2018-08-13T09:22:16.812Z,33.18
2018-08-13T09:23:16.810Z,33.26
2018-08-13T09:24:16.869Z,33.22
2018-08-13T09:25:16.800Z,33.19
2018-08-13T09:26:16.796Z,33.15
2018-08-13T09:27:16.789Z,33.18
2018-08-13T09:28:16.789Z,33.03
2018-08-13T09:29:16.782Z,32.96
2018-08-13T09:30:16.791Z,32.93
2018-08-13T09:31:16.776Z,32.94
2018-08-13T09:32:16.768Z,32.93
2018-08-13T09:33:16.773Z,32.93
2018-08-13T09:34:16.763Z,33.03
2018-08-13T09:35:16.755Z,33.09
2018-08-13T09:36:16.751Z,33.09
2018-08-13T09:37:16.748Z,33.04
2018-08-13T09:38:16.742Z,33.09
2018-08-13T09:39:16.741Z,33.06
2018-08-13T09:40:16.734Z,32.97
2018-08-13T09:41:16.732Z,32.96
2018-08-13T09:42:16.726Z,32.89
2018-08-13T09:43:16.719Z,32.82
2018-08-13T09:44:16.714Z,32.84
2018-08-13T09:45:16.710Z,32.75
2018-08-13T09:46:16.711Z,32.78
2018-08-13T09:47:16.699Z,32.74
2018-08-13T09:48:16.817Z,32.94
2018-08-13T09:49:16.691Z,32.92
2018-08-13T09:50:16.684Z,32.85
2018-08-13T09:51:16.678Z,32.84
2018-08-13T09:52:16.675Z,32.87
2018-08-13T09:53:16.671Z,32.79
2018-08-13T09:54:16.674Z,32.87
2018-08-13T09:55:16.660Z,32.79
2018-08-13T09:56:16.655Z,32.78
2018-08-13T09:57:16.653Z,32.77
2018-08-13T09:58:16.647Z,32.70
2018-08-13T09:59:16.652Z,32.69
2018-08-13T10:00:16.676Z,32.66
2018-08-13T10:01:16.629Z,32.70
2018-08-13T10:02:16.626Z,32.65
2018-08-13T10:03:16.622Z,32.55
2018-08-13T10:04:16.614Z,32.55
2018-08-13T10:05:16.617Z,32.72
2018-08-13T10:06:16.605Z,32.85
2018-08-13T10:07:16.598Z,33.34
2018-08-13T10:08:16.596Z,33.87
2018-08-13T10:09:16.636Z,34.13
2018-08-13T10:10:16.585Z,34.64
2018-08-13T10:11:16.579Z,34.92
2018-08-13T10:12:16.580Z,35.38
2018-08-13T10:13:16.570Z,35.80
2018-08-13T10:14:16.566Z,36.23
2018-08-13T10:15:16.561Z,36.44
2018-08-13T10:16:16.558Z,36.81
2018-08-13T10:17:16.554Z,36.99
2018-08-13T10:18:16.549Z,37.21
2018-08-13T10:19:16.548Z,37.70
2018-08-13T10:20:16.541Z,37.86
2018-08-13T10:21:16.538Z,38.06
2018-08-13T10:22:16.537Z,38.09
2018-08-13T10:23:16.531Z,38.53
2018-08-13T10:24:16.529Z,38.61
2018-08-13T10:25:16.523Z,38.79
2018-08-13T10:26:16.521Z,39.09
2018-08-13T10:27:16.518Z,39.18
2018-08-13T10:28:16.517Z,39.13
2018-08-13T10:29:16.513Z,39.32
2018-08-13T10:30:16.511Z,39.41
2018-08-13T10:31:16.507Z,39.40
2018-08-13T10:32:16.511Z,39.36
2018-08-13T10:33:16.502Z,39.57
2018-08-13T10:34:16.502Z,39.84
2018-08-13T10:35:16.499Z,39.92
2018-08-13T10:36:16.496Z,39.98
2018-08-13T10:37:16.550Z,39.97
2018-08-13T10:38:16.494Z,40.20
2018-08-13T10:39:16.495Z,40.38
2018-08-13T10:40:16.490Z,40.27
2018-08-13T10:41:16.496Z,40.45
2018-08-13T10:42:16.488Z,40.32
2018-08-13T10:43:16.485Z,40.31
2018-08-13T10:44:16.491Z,40.48
2018-08-13T10:45:16.485Z,40.77
2018-08-13T10:46:16.486Z,40.91
2018-08-13T10:47:16.480Z,40.94
2018-08-13T10:48:16.479Z,41.07
2018-08-13T10:49:16.488Z,40.98
2018-08-13T10:50:16.477Z,41.14
2018-08-13T10:51:16.477Z,41.29
2018-08-13T10:52:16.478Z,41.58
2018-08-13T10:53:16.476Z,41.91
2018-08-13T10:54:16.475Z,42.09
2018-08-13T10:55:16.474Z,42.20
2018-08-13T10:56:16.603Z,42.49
2018-08-13T10:57:16.475Z,42.40
2018-08-13T10:58:16.477Z,42.49
2018-08-13T10:59:16.483Z,42.43
2018-08-13T11:00:16.474Z,42.35
2018-08-13T11:01:16.534Z,42.39
2018-08-13T11:02:16.474Z,42.73
2018-08-13T11:03:16.475Z,42.98
2018-08-13T11:04:16.476Z,42.96
2018-08-13T11:05:16.486Z,43.15
2018-08-13T11:06:16.476Z,43.52
2018-08-13T11:07:16.476Z,43.64
2018-08-13T11:08:16.478Z,43.49
2018-08-13T11:09:16.489Z,43.28
2018-08-13T11:10:16.501Z,43.28
2018-08-13T11:11:16.480Z,43.42
2018-08-13T11:12:16.479Z,43.50
2018-08-13T11:13:16.481Z,43.23
2018-08-13T11:14:16.482Z,42.77
2018-08-13T11:15:16.487Z,41.89
2018-08-13T11:16:16.484Z,41.70
2018-08-13T11:17:16.539Z,41.87
2018-08-13T11:18:16.486Z,42.23
2018-08-13T11:19:16.489Z,42.20
2018-08-13T11:20:16.490Z,42.30
2018-08-13T11:21:16.491Z,42.46
2018-08-13T11:22:16.492Z,42.57
2018-08-13T11:23:16.492Z,43.03
2018-08-13T11:24:16.495Z,43.42
2018-08-13T11:25:16.543Z,43.84
2018-08-13T11:26:16.500Z,43.81
2018-08-13T11:27:16.499Z,43.45
2018-08-13T11:28:16.502Z,43.00
2018-08-13T11:29:16.502Z,42.61
2018-08-13T11:30:16.508Z,42.43
2018-08-13T11:31:16.534Z,41.96
2018-08-13T11:32:16.508Z,41.58
2018-08-13T11:33:16.515Z,41.23
2018-08-13T11:34:16.518Z,40.84
2018-08-13T11:35:16.509Z,40.70
2018-08-13T11:36:16.509Z,40.38
2018-08-13T11:37:16.511Z,39.97
2018-08-13T11:38:16.513Z,39.60
2018-08-13T11:39:16.519Z,39.54
2018-08-13T11:40:16.513Z,39.38
2018-08-13T11:41:16.526Z,39.30
2018-08-13T11:42:16.512Z,39.18
2018-08-13T11:43:16.512Z,38.79
2018-08-13T11:44:16.512Z,38.50
2018-08-13T11:45:16.511Z,38.35
2018-08-13T11:46:16.526Z,38.30
2018-08-13T11:47:16.512Z,38.11
2018-08-13T11:48:16.509Z,37.84
2018-08-13T11:49:16.509Z,37.55
2018-08-13T11:50:16.519Z,37.44
2018-08-13T11:51:16.506Z,37.34
2018-08-13T11:52:16.506Z,37.22
2018-08-13T11:53:16.505Z,37.27
2018-08-13T11:54:16.505Z,37.25
2018-08-13T11:55:16.585Z,37.10
2018-08-13T11:56:16.533Z,37.00
2018-08-13T11:57:16.496Z,36.91
2018-08-13T11:58:16.498Z,36.73
2018-08-13T11:59:16.497Z,36.65
2018-08-13T12:00:16.495Z,36.57
2018-08-13T12:01:16.492Z,36.57
2018-08-13T12:02:16.493Z,36.64
2018-08-13T12:03:16.499Z,36.88
2018-08-13T12:04:16.496Z,37.00
2018-08-13T12:05:16.498Z,37.22
2018-08-13T12:06:16.486Z,37.67
2018-08-13T12:07:16.485Z,37.94
2018-08-13T12:08:16.527Z,38.07
2018-08-13T12:09:16.486Z,38.16
2018-08-13T12:10:16.485Z,38.31
2018-08-13T12:11:16.478Z,38.04
2018-08-13T12:12:16.478Z,38.31
2018-08-13T12:13:16.477Z,38.46
2018-08-13T12:14:16.477Z,38.60
2018-08-13T12:15:16.481Z,38.65
2018-08-13T12:16:16.475Z,38.88
2018-08-13T12:17:16.473Z,39.35
2018-08-13T12:18:16.484Z,39.38
2018-08-13T12:19:16.471Z,39.81
2018-08-13T12:20:16.471Z,40.00
2018-08-13T12:21:16.471Z,40.51
2018-08-13T12:22:16.470Z,40.80
2018-08-13T12:23:16.467Z,41.25
2018-08-13T12:24:16.469Z,41.48
2018-08-13T12:25:16.471Z,41.69
2018-08-13T12:26:16.487Z,42.01
2018-08-13T12:27:16.469Z,42.23
2018-08-13T12:28:16.463Z,42.65
2018-08-13T12:29:16.461Z,42.70
2018-08-13T12:30:16.464Z,42.77
2018-08-13T12:31:16.467Z,42.80
2018-08-13T12:32:16.459Z,42.98
2018-08-13T12:33:16.458Z,42.95
2018-08-13T12:34:16.458Z,42.87
2018-08-13T12:35:16.455Z,42.52
2018-08-13T12:36:16.454Z,41.94
2018-08-13T12:37:16.456Z,41.48
2018-08-13T12:38:16.453Z,41.14
2018-08-13T12:39:16.452Z,41.10
2018-08-13T12:40:16.449Z,40.94
2018-08-13T12:41:16.449Z,41.14
2018-08-13T12:42:16.447Z,41.14
2018-08-13T12:43:16.445Z,41.21
2018-08-13T12:44:16.444Z,41.36
2018-08-13T12:45:16.452Z,41.37
2018-08-13T12:46:16.444Z,41.30
2018-08-13T12:47:16.440Z,41.29
2018-08-13T12:48:16.438Z,41.10
2018-08-13T12:49:16.436Z,40.99
2018-08-13T12:50:16.436Z,40.80
2018-08-13T12:51:16.434Z,40.39
2018-08-13T12:52:16.433Z,39.96
2018-08-13T12:53:16.428Z,39.77